M I D A S
Marine Information and Data Acquisition System
Tripno 764 of the Zeeleeuw from 2004-08-20 06:23:16 to 2004-08-20 11:06:25
Back to CruiseResearch ActivitiesStationsMapUnderway DataData graphs

EquipmentUnitsComment
TimeDGPSUTC
LatitudeDGPSDM.mWGS84
LongitudeDGPSDM.mWGS84
HeadingGyrodeg 
SOGDGPSknotsSpeed over ground
COGDGPSdegCourse over ground
DepthEcho soundermeters200 kHz
Missing or incorrect values are displayed as -999
Navigation data collected by the RV Zeeleeuw from 2004-08-20 06:23:16 to 2004-08-20 11:06:25
                                                                                    Next 1000 lines
Time Latitude Longitude Heading SOG COG Depth
2004-08-20 06:23:24 51°13.582 2°56.086 133.6 4.3 130 10.9
2004-08-20 06:23:26 51°13.581 2°56.089 133.8 4.4 131 10.9
2004-08-20 06:23:36 51°13.573 2°56.103 134.1 4.3 131 11
2004-08-20 06:23:39 51°13.57 2°56.108 134.1 4.3 131 11.1
2004-08-20 06:23:45 51°13.566 2°56.117 133.6 4.2 129 11.3
2004-08-20 06:23:52 51°13.561 2°56.127 133 4.2 129 10.4
2004-08-20 06:23:55 51°13.559 2°56.131 132.3 4.2 129 10.7
2004-08-20 06:23:59 51°13.556 2°56.137 131.7 4.1 128 11.2
2004-08-20 06:24:09 51°13.549 2°56.151 130.5 4 125 11.3
2004-08-20 06:24:12 51°13.548 2°56.156 127.8 4 122 11.2
2004-08-20 06:24:19 51°13.544 2°56.167 123 4.1 112 11.3
2004-08-20 06:24:24 51°13.542 2°56.176 116.4 4.1 107 11.3
2004-08-20 06:24:28 51°13.542 2°56.183 109.1 4.1 101 11.1
2004-08-20 06:24:34 51°13.541 2°56.193 101.6 4.1 101 11.2
2004-08-20 06:24:39 51°13.542 2°56.202 95.9 3.9 84 11.1
2004-08-20 06:24:43 51°13.543 2°56.208 87.8 3.8 79 11.1
2004-08-20 06:24:47 51°13.544 2°56.214 81.4 3.7 75 10.3
2004-08-20 06:24:54 51°13.546 2°56.224 76.2 3.5 71 9.8
2004-08-20 06:24:59 51°13.547 2°56.229 73.3 2.3 71 9.6
2004-08-20 06:25:03 51°13.548 2°56.232 69.5 1.7 62 10.1
2004-08-20 06:25:08 51°13.549 2°56.235 64.4 1.3 65 10.1
2004-08-20 06:25:15 51°13.55 2°56.236 58 0.4 64 10.3
2004-08-20 06:25:23 51°13.549 2°56.236 56 0.2 144 10.1
2004-08-20 06:25:27 51°13.548 2°56.235 55.2 0.7 230 10.1
2004-08-20 06:25:31 51°13.548 2°56.234 54.4 0.9 228 10.1
2004-08-20 06:25:35 51°13.547 2°56.232 53.7 1.3 233 -999
2004-08-20 06:25:43 51°13.545 2°56.228 52.9 1.5 232 -999
2004-08-20 06:25:48 51°13.543 2°56.224 52.2 1.7 233 -999
2004-08-20 06:25:53 51°13.542 2°56.221 51.8 1.6 232 -999
2004-08-20 06:25:56 51°13.542 2°56.22 51.8 1.5 235 -999
2004-08-20 06:26:03 51°13.54 2°56.217 51.6 0.9 235 -999
2004-08-20 06:26:08 51°13.54 2°56.216 50.5 0.4 246 -999
2004-08-20 06:26:13 51°13.54 2°56.216 47.3 0.2 326 -999
2004-08-20 06:26:17 51°13.541 2°56.217 42.9 0.5 19 -999
2004-08-20 06:26:23 51°13.543 2°56.218 37.8 0.8 22 -999
2004-08-20 06:26:27 51°13.544 2°56.219 32 1.4 25 -999
2004-08-20 06:26:33 51°13.546 2°56.22 26.5 1.3 19 -999
2004-08-20 06:26:37 51°13.547 2°56.22 23.2 1.1 21 -999
2004-08-20 06:26:43 51°13.548 2°56.221 21 0.7 37 -999
2004-08-20 06:26:48 51°13.548 2°56.221 19 0.2 82 -999
2004-08-20 06:26:53 51°13.548 2°56.222 17.7 0.3 156 4.9
2004-08-20 06:26:56 51°13.547 2°56.221 17.1 0.6 183 10.1
2004-08-20 06:26:59 51°13.546 2°56.221 16.8 0.9 182 10
2004-08-20 06:27:07 51°13.543 2°56.221 16.8 1.3 189 10.1
2004-08-20 06:27:12 51°13.541 2°56.22 16.7 1.5 189 -999
2004-08-20 06:27:17 51°13.539 2°56.22 17.2 1.4 191 -999
2004-08-20 06:27:23 51°13.538 2°56.219 18 0.6 208 -999
2004-08-20 06:27:28 51°13.538 2°56.219 18.3 0.2 21 -999
2004-08-20 06:27:33 51°13.54 2°56.219 14.6 1.1   -999
2004-08-20 06:27:35 51°13.541 2°56.219 7.5 1.7 3 -999
2004-08-20 06:27:43 51°13.545 2°56.218 0.5 1.6 351 -999
2004-08-20 06:27:48 51°13.546 2°56.219 356.9 1 5 -999
2004-08-20 06:27:52 51°13.547 2°56.219 354.1 0.5 1 -999
2004-08-20 06:27:57 51°13.546 2°56.219 351.8 0.1 35 -999
2004-08-20 06:28:03 51°13.546 2°56.22 350.5 0.5 148 10.2
2004-08-20 06:28:07 51°13.545 2°56.22 349.8 1.1 153 10.1
2004-08-20 06:28:12 51°13.543 2°56.222 349.3 1.4 158 10
2004-08-20 06:28:15 51°13.541 2°56.222 348.2 1.7 161 -999
2004-08-20 06:28:23 51°13.537 2°56.225 347.2 2 157 -999
2004-08-20 06:28:28 51°13.534 2°56.226 345.8 2.3 159 -999
2004-08-20 06:28:33 51°13.531 2°56.228 345.1 2.2 161 -999
2004-08-20 06:28:37 51°13.529 2°56.229 345.1 2 162 -999
2004-08-20 06:28:43 51°13.527 2°56.229 345.2 1.5 163 -999
2004-08-20 06:28:48 51°13.528 2°56.229 343.8 0.3 298 -999
2004-08-20 06:28:53 51°13.529 2°56.227 337.7 1.1 316 -999
2004-08-20 06:28:57 51°13.531 2°56.224 330.2 2.2 318 -999
2004-08-20 06:29:03 51°13.534 2°56.218 320.8 2.8 312 -999
2004-08-20 06:29:07 51°13.536 2°56.214 312.1 3.3 306 -999
2004-08-20 06:29:13 51°13.539 2°56.206 307 3.5 302 -999
2004-08-20 06:29:17 51°13.542 2°56.2 304.7 3.8 301 -999
2004-08-20 06:29:22 51°13.544 2°56.192 302.6 4 299 10.8
2004-08-20 06:29:27 51°13.547 2°56.183 301.4 4.7 297 10.5
2004-08-20 06:29:37 51°13.554 2°56.163 299.7 5.3 295 11.1
2004-08-20 06:29:42 51°13.557 2°56.151 299.7 5.6 295 11
2004-08-20 06:29:47 51°13.561 2°56.139 300.1 6.1 297 10.4
2004-08-20 06:29:50 51°13.563 2°56.132 300.8 6.3 296 10.9
2004-08-20 06:29:57 51°13.569 2°56.114 300.9 6.5 297 10.9
2004-08-20 06:30:01 51°13.572 2°56.103 301.6 6.7 298 10.9
2004-08-20 06:30:07 51°13.578 2°56.087 302.5 7 300 10.7
2004-08-20 06:30:18 51°13.589 2°56.057 305 7.4 301 11.2
2004-08-20 06:30:23 51°13.595 2°56.042 305.7 7.5 301 11
2004-08-20 06:30:28 51°13.6 2°56.028 306.4 7.6 303 11.1
2004-08-20 06:30:31 51°13.604 2°56.02 307.9 7.7 304 11.4
2004-08-20 06:30:38 51°13.612 2°56 308.8 7.8 304 11.2
2004-08-20 06:30:43 51°13.619 2°55.986 308.6 7.9 303 11.2
2004-08-20 06:30:48 51°13.625 2°55.971 308.1 8 303 11.6
2004-08-20 06:30:53 51°13.631 2°55.956 307.9 8 304 11.2
2004-08-20 06:30:58 51°13.637 2°55.941 308.1 8.1 303 11.3
2004-08-20 06:31:03 51°13.643 2°55.926 308.1 8.1 303 11.1
2004-08-20 06:31:07 51°13.648 2°55.914 308 8.2 303 11
2004-08-20 06:31:19 51°13.663 2°55.878 308.5 8.3 303 10.8
2004-08-20 06:31:24 51°13.669 2°55.863 308.5 8.3 304 10.8
2004-08-20 06:31:27 51°13.673 2°55.853 308.4 8.3 304 10.8
2004-08-20 06:31:32 51°13.679 2°55.838 308.3 8.3 303 11
2004-08-20 06:31:43 51°13.694 2°55.805 309.6 8.4 307 13
2004-08-20 06:31:48 51°13.701 2°55.791 310.9 8.4 308 13.6
2004-08-20 06:31:51 51°13.706 2°55.782 312.1 8.4 309 13.8
2004-08-20 06:31:58 51°13.716 2°55.762 313.2 8.4 309 13.3
2004-08-20 06:32:03 51°13.724 2°55.748 314.2 8.4 311 11.6
2004-08-20 06:32:07 51°13.73 2°55.737 315.5 8.4 313 10.8
2004-08-20 06:32:21 51°13.754 2°55.701 321.5 8.4 319 10.1
2004-08-20 06:32:26 51°13.763 2°55.69 324 8.4 321 9.9
2004-08-20 06:32:31 51°13.773 2°55.679 326.6 8.4 324 10.5
2004-08-20 06:32:36 51°13.782 2°55.668 328.4 8.4 325 10.4
2004-08-20 06:32:40 51°13.79 2°55.66 330.9 8.4 327 10.7
2004-08-20 06:32:47 51°13.804 2°55.646 332.8 8.4 328 11.4
2004-08-20 06:32:48 51°13.806 2°55.644 334.8 8.5 332 11.4
2004-08-20 06:32:59 51°13.83 2°55.627 338.8 8.4 337 10.9
2004-08-20 06:33:03 51°13.838 2°55.621 342.1 8.4 338 11.4
2004-08-20 06:33:12 51°13.858 2°55.609 343.2 8.5 338 11.3
2004-08-20 06:33:15 51°13.864 2°55.605 342.6 8.6 338 11.4
2004-08-20 06:33:29 51°13.896 2°55.584 342.3 8.7 338 10.4
2004-08-20 06:33:32 51°13.902 2°55.58 342 8.8 336 10.5
2004-08-20 06:33:39 51°13.918 2°55.568 340.5 8.9 334 10.3
2004-08-20 06:33:44 51°13.929 2°55.559 339.7 8.9 335 10.5
2004-08-20 06:33:47 51°13.936 2°55.554 340.4 8.9 336 10.9
2004-08-20 06:33:52 51°13.948 2°55.546 341.4 9 336 11.3
2004-08-20 06:34:03 51°13.973 2°55.528 340.9 9.1 336 11.8
2004-08-20 06:34:08 51°13.985 2°55.52 341.2 9.2 336 12.3
2004-08-20 06:34:13 51°13.996 2°55.512 341.1 9.3 336 12.4
2004-08-20 06:34:18 51°14.008 2°55.503 341.1 9.4 336 11.8
2004-08-20 06:34:23 51°14.02 2°55.495 341.4 9.5 337 11.7
2004-08-20 06:34:27 51°14.03 2°55.488 341.8 9.5 337 11.4
2004-08-20 06:34:32 51°14.043 2°55.48 341.8 9.5 337 11.3
2004-08-20 06:34:37 51°14.055 2°55.471 341.4 9.6 336 11.4
2004-08-20 06:34:44 51°14.072 2°55.459 341.2 9.6 336 11.5
2004-08-20 06:34:48 51°14.081 2°55.451 341.1 9.7 335 11.3
2004-08-20 06:34:53 51°14.094 2°55.442 339.9 9.9 334 11.4
2004-08-20 06:34:58 51°14.106 2°55.432 339.7 10.1 335 11.7
2004-08-20 06:35:03 51°14.119 2°55.422 339.9 10.3 334 11.8
2004-08-20 06:35:08 51°14.132 2°55.412 339.4 10.5 333 12.2
2004-08-20 06:35:11 51°14.14 2°55.404 336.9 10.7 330 12.2
2004-08-20 06:35:19 51°14.16 2°55.385 335.5 10.7 330 11.7
2004-08-20 06:35:23 51°14.171 2°55.375 335.3 10.9 328 11.9
2004-08-20 06:35:27 51°14.181 2°55.365 334.4 11 327 11.9
2004-08-20 06:35:39 51°14.211 2°55.329 328.1 11.1 321 11.8
2004-08-20 06:35:43 51°14.22 2°55.316 326.2 11.2 319 11.8
2004-08-20 06:35:52 51°14.241 2°55.286 323.2 11.4 316 12
2004-08-20 06:35:55 51°14.247 2°55.275 321.3 11.5 314 11.6
2004-08-20 06:36:09 51°14.279 2°55.223 319.3 11.8 313 11.8
2004-08-20 06:36:12 51°14.286 2°55.211 318.7 11.8 313 11.6
2004-08-20 06:36:19 51°14.301 2°55.184 318.6 12 313 11.6
2004-08-20 06:36:24 51°14.313 2°55.164 318.6 12.1 312 11.5
2004-08-20 06:36:27 51°14.319 2°55.152 318 12.2 311 11.4
2004-08-20 06:36:32 51°14.331 2°55.132 317 12.3 311 11.4
2004-08-20 06:36:43 51°14.356 2°55.087 317.6 12.5 312 11
2004-08-20 06:36:48 51°14.367 2°55.066 317.9 12.6 311 11.3
2004-08-20 06:36:53 51°14.379 2°55.044 316.8 12.8 310 11.5
2004-08-20 06:36:58 51°14.39 2°55.022 315.6 12.9 308 11.3
2004-08-20 06:37:03 51°14.4 2°54.998 312.8 13 302 11.4
2004-08-20 06:37:07 51°14.407 2°54.978 309.5 13.1 299 11.3
2004-08-20 06:37:13 51°14.416 2°54.947 303.9 13.1 295 11.2
2004-08-20 06:37:18 51°14.423 2°54.92 300.4 13.1 291 11.3
2004-08-20 06:37:23 51°14.428 2°54.892 296.1 13.1 287 11.2
2004-08-20 06:37:27 51°14.432 2°54.869 293.2 13.1 284 11.2
2004-08-20 06:37:33 51°14.436 2°54.835 289.7 13.1 281 11.3
2004-08-20 06:37:38 51°14.437 2°54.806 285.2 13.1 275 11.2
2004-08-20 06:37:43 51°14.438 2°54.777 280.2 13.1 272 11.4
2004-08-20 06:37:47 51°14.439 2°54.754 277.8 13.2 273 11.2
2004-08-20 06:37:53 51°14.44 2°54.718 277.2 13.2 272 11.2
2004-08-20 06:37:57 51°14.441 2°54.695 277.2 13.3 273 11.2
2004-08-20 06:38:03 51°14.442 2°54.66 278.1 13.2 273 11.2
2004-08-20 06:38:07 51°14.442 2°54.637 278 12.8 270 11.2
2004-08-20 06:38:12 51°14.442 2°54.611 275.6 12 268 11.2
2004-08-20 06:38:15 51°14.441 2°54.596 273.4 11.2 267 11
2004-08-20 06:38:23 51°14.439 2°54.559 270.5 9.8 264 11.2
2004-08-20 06:38:27 51°14.438 2°54.543 267.7 9.1 262 11.2
2004-08-20 06:38:31 51°14.436 2°54.528 265.6 8.5 261 11.3
2004-08-20 06:38:37 51°14.434 2°54.507 264.2 7.7 260 11.4
2004-08-20 06:38:43 51°14.433 2°54.489 263.8 7.2 262 11.3
2004-08-20 06:38:48 51°14.431 2°54.474 264.4 6.8 262 11.6
2004-08-20 06:38:52 51°14.43 2°54.463 265.6 6.4 263 11.4
2004-08-20 06:38:58 51°14.429 2°54.447 266.9 6 264 11.2
2004-08-20 06:39:03 51°14.429 2°54.434 268.2 5.5 266 11
2004-08-20 06:39:07 51°14.429 2°54.425 269.6 5.3 267 10.8
2004-08-20 06:39:12 51°14.429 2°54.414 271 5.1 269 10.8
2004-08-20 06:39:18 51°14.429 2°54.402 272.9 4.7 271 10.6
2004-08-20 06:39:23 51°14.429 2°54.392 274.8 4.5 272 10.8
2004-08-20 06:39:28 51°14.429 2°54.382 276.8 4.4 274 10.7
2004-08-20 06:39:33 51°14.43 2°54.372 278.7 4.3 274 10.6
2004-08-20 06:39:38 51°14.43 2°54.364 279.8 4.1 275 10.3
2004-08-20 06:39:43 51°14.431 2°54.356 280.2 3.8 276 10.4
2004-08-20 06:39:47 51°14.431 2°54.349 280.4 3.7 276 10.3
2004-08-20 06:39:59 51°14.433 2°54.33 280.4 3.5 276 10.4
2004-08-20 06:40:03 51°14.433 2°54.324 280.1 3.3 277 10.3
2004-08-20 06:40:09 51°14.433 2°54.315 279.5 3.3 276 10.3
2004-08-20 06:40:14 51°14.434 2°54.308 278.8 3.1 276 10.3
2004-08-20 06:40:19 51°14.434 2°54.302 278.2 3 274 10.3
2004-08-20 06:40:24 51°14.435 2°54.295 277.7 2.9 274 10.3
2004-08-20 06:40:29 51°14.435 2°54.289 277.1 2.9 274 10.2
2004-08-20 06:40:39 51°14.435 2°54.277 275.8 2.6 273 10.4
2004-08-20 06:40:43 51°14.435 2°54.272 275 2.4 273 10.4
2004-08-20 06:40:55 51°14.436 2°54.26 273 2.3 272 10.3
2004-08-20 06:41:03 51°14.436 2°54.252 272.1 2.1 269 10.3
2004-08-20 06:41:07 51°14.436 2°54.249 271.6 2.1 270 10.1
2004-08-20 06:41:12 51°14.435 2°54.245 271.1 1.8 267 10.2
2004-08-20 06:41:15 51°14.436 2°54.243 270.3 1.7 272 10.3
2004-08-20 06:41:23 51°14.436 2°54.237 269.5 1.6 274 10.3
2004-08-20 06:41:27 51°14.436 2°54.234 269.3 1.6 273 10.2
2004-08-20 06:41:37 51°14.436 2°54.228 269.5 1.4 277 10.4
2004-08-20 06:41:42 51°14.436 2°54.225 269.5 1.4 271 10.5
2004-08-20 06:41:47 51°14.436 2°54.222 269.4 1.3 274 10.4
2004-08-20 06:41:52 51°14.436 2°54.219 269.6 1.3 276 10.4
2004-08-20 06:41:56 51°14.437 2°54.217 269.6 1.3 277 10.4
2004-08-20 06:42:03 51°14.437 2°54.213 270 1.3 275 10.5
2004-08-20 06:42:07 51°14.437 2°54.211 270.4 1.1 283 10.5
2004-08-20 06:42:10 51°14.437 2°54.211 270.5 1.1 274 10.4
2004-08-20 06:42:15 51°14.438 2°54.208 270.7 0.9 285 10.3
2004-08-20 06:42:22 51°14.438 2°54.206 270.4 0.9 286 10.2
2004-08-20 06:42:27 51°14.438 2°54.204 270.5 1 291 10.4
2004-08-20 06:42:32 51°14.439 2°54.202 271 0.9 281 10.4
2004-08-20 06:42:35 51°14.439 2°54.201 271.8 0.9 292 10.4
2004-08-20 06:42:39 51°14.439 2°54.199 272.5 0.9 290 10.4
2004-08-20 06:42:47 51°14.44 2°54.196 272.7 0.9 290 10.4
2004-08-20 06:42:52 51°14.44 2°54.194 273.6 0.8 291 10.3
2004-08-20 06:42:54 51°14.44 2°54.193 274 0.9 291 10.3
2004-08-20 06:43:05 51°14.441 2°54.189 274.9 0.8 287 10.3
2004-08-20 06:43:07 51°14.441 2°54.189 275.2 0.8 295 10.2
2004-08-20 06:43:12 51°14.442 2°54.188 275.3 0.8 298 10.3
2004-08-20 06:43:23 51°14.443 2°54.185 276.1 0.7 301 10.3
2004-08-20 06:43:28 51°14.443 2°54.183 276.7 0.6 307 10.2
2004-08-20 06:43:31 51°14.443 2°54.182 277.2 0.7 296 10.2
2004-08-20 06:43:38 51°14.444 2°54.179 277.6 0.9 291 10.2
2004-08-20 06:43:43 51°14.445 2°54.177 277.9 1.4 285 10.3
2004-08-20 06:43:47 51°14.445 2°54.174 277.5 1.6 282 10.3
2004-08-20 06:43:59 51°14.446 2°54.159 272.6 3.8 271 10.4
2004-08-20 06:44:04 51°14.446 2°54.149 268.7 4.5 266 10.5
2004-08-20 06:44:11 51°14.443 2°54.132 265 5.7 259 10.5
2004-08-20 06:44:16 51°14.442 2°54.119 261.8 6.3 256 10.2
2004-08-20 06:44:19 51°14.44 2°54.11 258.8 6.9 254 10.1
2004-08-20 06:44:23 51°14.437 2°54.097 256.8 7.5 253 10.2
2004-08-20 06:44:32 51°14.43 2°54.066 254.9 8.5 250 10.2
2004-08-20 06:44:35 51°14.428 2°54.055 252.6 8.9 248 10.1
2004-08-20 06:44:39 51°14.423 2°54.04 250.4 9.6 245 10.1
2004-08-20 06:44:43 51°14.419 2°54.024 249 9.7 245 10.4
2004-08-20 06:44:51 51°14.409 2°53.992 247.5 10.4 243 10.2
2004-08-20 06:44:55 51°14.403 2°53.974 246.4 11.2 242 10.3
2004-08-20 06:44:59 51°14.397 2°53.956 246.1 11.6 241 10.3
2004-08-20 06:45:05 51°14.387 2°53.928 245.3 12.2 241 10.1
2004-08-20 06:45:09 51°14.38 2°53.909 244.6 12.5 241 10.2
2004-08-20 06:45:17 51°14.366 2°53.87 244.5 12.7 241 10.2
2004-08-20 06:45:21 51°14.359 2°53.851 244.4 12.8 240 10.3
2004-08-20 06:45:27 51°14.349 2°53.821 244.4 12.9 241 10.1
2004-08-20 06:45:32 51°14.34 2°53.795 244.5 13.1 240 10.1
2004-08-20 06:45:36 51°14.333 2°53.775 244.3 13.2 241 10.1
2004-08-20 06:45:42 51°14.322 2°53.744 244.6 13.3 241 10.2
2004-08-20 06:45:47 51°14.313 2°53.718 245.1 13.2 241 10
2004-08-20 06:45:52 51°14.304 2°53.693 245 13.3 241 10.1
2004-08-20 06:45:56 51°14.297 2°53.672 245.2 13.3 241 10.2
2004-08-20 06:46:01 51°14.288 2°53.646 245.2 13.3 241 10
2004-08-20 06:46:07 51°14.277 2°53.615 245.4 13.2 241 10.1
2004-08-20 06:46:12 51°14.268 2°53.589 245.7 13.4 241 10.1
2004-08-20 06:46:16 51°14.261 2°53.569 245.4 13.3 241 9.9
2004-08-20 06:46:22 51°14.25 2°53.538 244.9 13.3 241 10
2004-08-20 06:46:28 51°14.239 2°53.507 244.7 13.4 240 10.2
2004-08-20 06:46:32 51°14.231 2°53.487 244.6 13.4 240 10.1
2004-08-20 06:46:37 51°14.222 2°53.461 244.4 13.5 239 10.2
2004-08-20 06:46:42 51°14.212 2°53.436 243.8 13.5 239 10.2
2004-08-20 06:46:47 51°14.202 2°53.41 243.8 13.4 239 10.2
2004-08-20 06:46:52 51°14.193 2°53.384 243.6 13.5 239 10.5
2004-08-20 06:46:55 51°14.187 2°53.369 243.8 13.4 239 10.1
2004-08-20 06:47:02 51°14.174 2°53.333 243.7 13.5 239 10.3
2004-08-20 06:47:04 51°14.17 2°53.323 244 13.5 239 10.2
2004-08-20 06:47:12 51°14.155 2°53.282 243.9 13.4 240 10.1
2004-08-20 06:47:14 51°14.151 2°53.272 244 13.5 240 10.4
2004-08-20 06:47:22 51°14.136 2°53.231 244.7 13.4 239 10.3
2004-08-20 06:47:24 51°14.133 2°53.221 244 13.4 240 10.4
2004-08-20 06:47:32 51°14.118 2°53.18 244.3 13.4 240 10.5
2004-08-20 06:47:36 51°14.11 2°53.159 244.7 13.3 240 10.4
2004-08-20 06:47:40 51°14.103 2°53.139 244.4 13.2 239 10.4
2004-08-20 06:47:47 51°14.09 2°53.103 244.1 13.3 239 10.5
2004-08-20 06:47:51 51°14.082 2°53.083 244.4 13.3 240 10.6
2004-08-20 06:47:56 51°14.073 2°53.058 243.9 13.2 240 10.4
2004-08-20 06:48:02 51°14.061 2°53.027 244.1 13.3 239 10.6
2004-08-20 06:48:04 51°14.058 2°53.017 243.8 13.3 240 10.7
2004-08-20 06:48:13 51°14.04 2°52.971 243.8 13.4 240 10.9
2004-08-20 06:48:17 51°14.033 2°52.951 244.2 13.4 240 10.9
2004-08-20 06:48:24 51°14.02 2°52.915 244.2 13.4 239 10.7
2004-08-20 06:48:28 51°14.012 2°52.895 244 13.3 239 10.9
2004-08-20 06:48:32 51°14.005 2°52.875 244.1 13.3 239 10.9
2004-08-20 06:48:39 51°13.992 2°52.839 243.8 13.4 240 10.9
2004-08-20 06:48:44 51°13.983 2°52.814 244.4 13.4 239 10.8
2004-08-20 06:48:48 51°13.975 2°52.793 244.4 13.4 240 10.9
2004-08-20 06:48:52 51°13.968 2°52.772 244.4 13.5 240 10.9
2004-08-20 06:48:59 51°13.955 2°52.736 244.7 13.5 240 10.7
2004-08-20 06:49:04 51°13.946 2°52.71 244.8 13.4 241 11.1
2004-08-20 06:49:08 51°13.938 2°52.69 244.9 13.5 240 11
2004-08-20 06:49:12 51°13.931 2°52.669 244.9 13.4 240 10.8
2004-08-20 06:49:19 51°13.918 2°52.633 245.1 13.3 240 10.9
2004-08-20 06:49:24 51°13.909 2°52.608 245 13.3 241 11.1
2004-08-20 06:49:28 51°13.901 2°52.587 245.2 13.4 241 11.1
2004-08-20 06:49:32 51°13.894 2°52.566 245.1 13.4 240 10.9
2004-08-20 06:49:40 51°13.879 2°52.525 245.3 13.3 240 10.9
2004-08-20 06:49:47 51°13.866 2°52.489 244.7 13.4 240 11
2004-08-20 06:49:52 51°13.857 2°52.464 244.5 13.6 239 11.1
2004-08-20 06:49:56 51°13.849 2°52.443 244.7 13.4 240 10.8
2004-08-20 06:50:00 51°13.842 2°52.422 244.7 13.5 240 10.9
2004-08-20 06:50:07 51°13.828 2°52.387 244.6 13.5 240 11
2004-08-20 06:50:12 51°13.819 2°52.361 244.5 13.6 239 11
2004-08-20 06:50:15 51°13.813 2°52.345 244.2 13.6 240 11
2004-08-20 06:50:20 51°13.804 2°52.32 244.3 13.7 239 11.1
2004-08-20 06:50:25 51°13.794 2°52.293 244.3 13.6 240 11
2004-08-20 06:50:32 51°13.781 2°52.257 244.4 13.5 239 11
2004-08-20 06:50:36 51°13.774 2°52.236 244.7 13.6 241 11.1
2004-08-20 06:50:40 51°13.766 2°52.216 245.1 13.5 240 10.8
2004-08-20 06:50:47 51°13.754 2°52.179 245.1 13.5 240 11.1
2004-08-20 06:50:52 51°13.745 2°52.154 245.6 13.4 240 10.9
2004-08-20 06:50:56 51°13.737 2°52.133 245.3 13.4 241 11.1
2004-08-20 06:51:00 51°13.73 2°52.113 245.4 13.5 240 11
2004-08-20 06:51:04 51°13.723 2°52.092 245.3 13.5 241 11.1
2004-08-20 06:51:12 51°13.708 2°52.051 245.1 13.5 240 11
2004-08-20 06:51:16 51°13.7 2°52.03 244.8 13.5 240 11
2004-08-20 06:51:21 51°13.691 2°52.004 244.9 13.5 240 11.1
2004-08-20 06:51:26 51°13.681 2°51.978 244.8 13.5 240 11.1
2004-08-20 06:51:35 51°13.664 2°51.931 243.9 13.5 240 11
2004-08-20 06:51:43 51°13.649 2°51.89 244.6 13.5 239 11.1
2004-08-20 06:51:48 51°13.64 2°51.864 244.5 13.5 240 11.2
2004-08-20 06:51:52 51°13.632 2°51.843 244.8 13.6 240 11.1
2004-08-20 06:52:01 51°13.616 2°51.796 245 13.6 240 11.1
2004-08-20 06:52:06 51°13.606 2°51.769 244.5 13.7 240 11.2
2004-08-20 06:52:12 51°13.595 2°51.738 244.5 13.6 240 11.3
2004-08-20 06:52:17 51°13.585 2°51.712 244.9 13.5 240 11
2004-08-20 06:52:22 51°13.576 2°51.686 244.8 13.6 239 11.4
2004-08-20 06:52:25 51°13.57 2°51.67 245.2 13.5 240 11
2004-08-20 06:52:32 51°13.557 2°51.634 244.3 13.5 240 11.2
2004-08-20 06:52:36 51°13.55 2°51.613 244.6 13.6 241 11.2
2004-08-20 06:52:40 51°13.543 2°51.592 245 13.6 241 11.2
2004-08-20 06:52:44 51°13.536 2°51.571 245.5 13.6 242 11.3
2004-08-20 06:52:49 51°13.526 2°51.545 245.7 13.5 240 11.1
2004-08-20 06:52:56 51°13.513 2°51.509 244.8 13.6 240 11.4
2004-08-20 06:53:05 51°13.497 2°51.462 244.8 13.6 240 11.2
2004-08-20 06:53:11 51°13.485 2°51.431 245.2 13.6 241 11.2
2004-08-20 06:53:16 51°13.476 2°51.405 244.9 13.7 240 11.3
2004-08-20 06:53:20 51°13.468 2°51.384 245.2 13.7 240 11.3
2004-08-20 06:53:25 51°13.459 2°51.357 244.7 13.7 240 11.4
2004-08-20 06:53:30 51°13.45 2°51.331 245.1 13.7 241 11.2
2004-08-20 06:53:36 51°13.439 2°51.3 245.1 13.6 240 11.3
2004-08-20 06:53:40 51°13.431 2°51.279 244.8 13.6 240 11.3
2004-08-20 06:53:46 51°13.42 2°51.247 245 13.6 240 11.6
2004-08-20 06:53:51 51°13.411 2°51.221 245.3 13.6 241 11.3
2004-08-20 06:53:56 51°13.402 2°51.195 245.7 13.6 241 11.3
2004-08-20 06:54:00 51°13.395 2°51.174 245.3 13.6 241 11.3
2004-08-20 06:54:06 51°13.383 2°51.143 246 13.5 241 11.4
2004-08-20 06:54:10 51°13.376 2°51.122 245.8 13.5 241 11.3
2004-08-20 06:54:15 51°13.367 2°51.095 245.3 13.6 241 11.4
2004-08-20 06:54:20 51°13.358 2°51.069 245.3 13.6 241 11.3
2004-08-20 06:54:25 51°13.349 2°51.042 245.3 13.5 241 11.5
2004-08-20 06:54:30 51°13.339 2°51.016 244.7 13.5 240 11.4
2004-08-20 06:54:36 51°13.328 2°50.985 244.7 13.6 240 11.5
2004-08-20 06:54:41 51°13.319 2°50.959 244.7 13.5 241 11.5
2004-08-20 06:54:46 51°13.31 2°50.933 245.1 13.6 241 11.5
2004-08-20 06:54:48 51°13.306 2°50.922 245 13.6 241 11.5
2004-08-20 06:54:56 51°13.292 2°50.88 245.3 13.5 242 11.5
2004-08-20 06:55:00 51°13.284 2°50.859 245.7 13.5 241 11.4
2004-08-20 06:55:05 51°13.275 2°50.833 245.5 13.5 241 11.6
2004-08-20 06:55:12 51°13.263 2°50.797 245.9 13.5 241 11.5
2004-08-20 06:55:16 51°13.255 2°50.776 245.8 13.5 241 11.3
2004-08-20 06:55:26 51°13.237 2°50.724 245.2 13.5 241 11.4
2004-08-20 06:55:29 51°13.231 2°50.708 245.2 13.6 240 11.3
2004-08-20 06:55:35 51°13.221 2°50.677 245.6 13.4 242 11.5
2004-08-20 06:55:40 51°13.212 2°50.651 245.4 13.5 241 11.5
2004-08-20 06:55:44 51°13.204 2°50.63 245.6 13.6 241 11.5
2004-08-20 06:55:49 51°13.195 2°50.604 246 13.6 241 11.5
2004-08-20 06:55:58 51°13.179 2°50.556 245.9 13.7 241 11.4
2004-08-20 06:56:04 51°13.168 2°50.525 245.4 13.7 240 11.5
2004-08-20 06:56:09 51°13.159 2°50.498 244.9 13.7 241 11.5
2004-08-20 06:56:13 51°13.151 2°50.478 245.2 13.7 241 11.6
2004-08-20 06:56:19 51°13.14 2°50.446 245.2 13.7 241 11.3
2004-08-20 06:56:24 51°13.131 2°50.42 245.3 13.6 241 11.6
2004-08-20 06:56:29 51°13.121 2°50.394 245 13.7 240 11.7
2004-08-20 06:56:34 51°13.112 2°50.367 244.7 13.7 241 11.5
2004-08-20 06:56:36 51°13.108 2°50.357 244.8 13.7 241 11.5
2004-08-20 06:56:44 51°13.093 2°50.314 244.6 13.8 241 11.5
2004-08-20 06:56:49 51°13.084 2°50.288 244.7 13.8 240 11.7
2004-08-20 06:56:52 51°13.078 2°50.272 244.7 13.7 240 11.7
2004-08-20 06:56:58 51°13.067 2°50.241 244.7 13.7 240 11.5
2004-08-20 06:57:01 51°13.062 2°50.225 244.5 13.8 242 11.6
2004-08-20 06:57:08 51°13.049 2°50.187 245.3 13.7 242 11.5
2004-08-20 06:57:12 51°13.042 2°50.166 245.5 13.7 241 11.6
2004-08-20 06:57:19 51°13.029 2°50.129 245.5 13.7 242 11.7
2004-08-20 06:57:24 51°13.02 2°50.102 245.8 13.7 241 11.7
2004-08-20 06:57:28 51°13.013 2°50.081 245.6 13.7 242 11.7
2004-08-20 06:57:34 51°13.002 2°50.049 245.7 13.7 241 11.7
2004-08-20 06:57:39 51°12.993 2°50.022 245.3 13.7 242 11.7
2004-08-20 06:57:44 51°12.984 2°49.996 245.3 13.7 241 11.7
2004-08-20 06:57:48 51°12.976 2°49.975 245.3 13.7 241 11.8
2004-08-20 06:57:52 51°12.969 2°49.954 244.9 13.6 241 11.4
2004-08-20 06:57:56 51°12.962 2°49.933 244.8 13.7 240 11.7
2004-08-20 06:58:04 51°12.947 2°49.891 244.8 13.7 241 11.9
2004-08-20 06:58:08 51°12.939 2°49.87 245.2 13.6 241 11.6
2004-08-20 06:58:13 51°12.931 2°49.843 245.2 13.6 242 11.7
2004-08-20 06:58:18 51°12.921 2°49.816 245.6 13.7 241 11.9
2004-08-20 06:58:24 51°12.911 2°49.785 245.5 13.6 242 11.7
2004-08-20 06:58:28 51°12.904 2°49.763 245.4 13.6 242 11.5
2004-08-20 06:58:33 51°12.894 2°49.737 245.5 13.6 241 11.7
2004-08-20 06:58:39 51°12.884 2°49.705 245.7 13.6 242 11.8
2004-08-20 06:58:44 51°12.875 2°49.678 246 13.6 242 11.9
2004-08-20 06:58:48 51°12.868 2°49.657 246 13.6 242 11.7
2004-08-20 06:58:52 51°12.86 2°49.636 245.3 13.6 241 11.9
2004-08-20 06:58:56 51°12.853 2°49.614 245.4 13.7 242 11.8
2004-08-20 06:59:04 51°12.838 2°49.572 245.4 13.6 241 11.9
2004-08-20 06:59:09 51°12.829 2°49.545 245.3 13.6 241 11.7
2004-08-20 06:59:13 51°12.822 2°49.524 245.3 13.7 241 11.8
2004-08-20 06:59:19 51°12.811 2°49.493 245.3 13.5 241 11.7
2004-08-20 06:59:24 51°12.802 2°49.467 244.9 13.5 240 11.9
2004-08-20 06:59:28 51°12.794 2°49.446 244.6 13.6 241 11.8
2004-08-20 06:59:32 51°12.787 2°49.425 244.4 13.6 240 12
2004-08-20 06:59:36 51°12.78 2°49.404 244.9 13.5 241 11.9
2004-08-20 06:59:44 51°12.765 2°49.362 244.8 13.5 241 12
2004-08-20 06:59:49 51°12.756 2°49.336 245.1 13.6 241 11.9
2004-08-20 06:59:53 51°12.749 2°49.314 245.3 13.6 242 12
2004-08-20 06:59:56 51°12.744 2°49.298 245.9 13.6 242 12
2004-08-20 07:00:04 51°12.729 2°49.256 246 13.7 242 12
2004-08-20 07:00:09 51°12.72 2°49.229 245.7 13.6 242 11.9
2004-08-20 07:00:13 51°12.713 2°49.208 245.1 13.7 241 11.9
2004-08-20 07:00:19 51°12.702 2°49.176 244.6 13.7 241 11.9
2004-08-20 07:00:24 51°12.693 2°49.15 244.5 13.7 241 12.1
2004-08-20 07:00:29 51°12.683 2°49.124 244.5 13.6 240 12
2004-08-20 07:00:34 51°12.674 2°49.098 244.3 13.6 241 12.1
2004-08-20 07:00:38 51°12.667 2°49.077 244.6 13.7 241 12.1
2004-08-20 07:00:43 51°12.658 2°49.05 244.5 13.7 241 12
2004-08-20 07:00:48 51°12.649 2°49.023 244.9 13.7 242 12.1
2004-08-20 07:00:54 51°12.638 2°48.992 245.3 13.7 242 12
2004-08-20 07:00:59 51°12.629 2°48.965 245.5 13.6 242 12
2004-08-20 07:01:04 51°12.621 2°48.938 246 13.7 242 12.2
2004-08-20 07:01:09 51°12.612 2°48.912 246.1 13.6 242 12
2004-08-20 07:01:13 51°12.605 2°48.89 246 13.6 242 12
2004-08-20 07:01:19 51°12.594 2°48.858 245.9 13.7 242 12.2
2004-08-20 07:01:24 51°12.585 2°48.832 245.9 13.6 241 12
2004-08-20 07:01:28 51°12.578 2°48.811 245 13.6 242 12.1
2004-08-20 07:01:34 51°12.567 2°48.78 245.3 13.6 242 12.1
2004-08-20 07:01:39 51°12.558 2°48.753 245.3 13.6 241 12.1
2004-08-20 07:01:44 51°12.549 2°48.726 245.1 13.6 242 12.2
2004-08-20 07:01:48 51°12.542 2°48.705 245.2 13.6 242 12.1
2004-08-20 07:01:53 51°12.533 2°48.679 245 13.6 241 12.2
2004-08-20 07:01:57 51°12.525 2°48.658 245 13.6 241 12.2
2004-08-20 07:02:04 51°12.513 2°48.621 244.9 13.7 241 12.3
2004-08-20 07:02:08 51°12.505 2°48.6 244.7 13.6 241 12.1
2004-08-20 07:02:12 51°12.498 2°48.579 244.4 13.6 241 12.1
2004-08-20 07:02:16 51°12.491 2°48.558 244.5 13.6 241 12.3
2004-08-20 07:02:26 51°12.473 2°48.505 244.9 13.6 242 12.4
2004-08-20 07:02:32 51°12.462 2°48.473 245.2 13.6 241 12.3
2004-08-20 07:02:36 51°12.455 2°48.452 245.3 13.6 242 12.5
2004-08-20 07:02:42 51°12.444 2°48.42 245.5 13.6 242 12.4
2004-08-20 07:02:44 51°12.441 2°48.41 245.4 13.5 242 12.5
2004-08-20 07:02:53 51°12.425 2°48.362 245.1 13.5 241 12.5
2004-08-20 07:02:57 51°12.418 2°48.341 245.5 13.5 243 12.3
2004-08-20 07:03:04 51°12.405 2°48.304 245.3 13.6 242 12.4
2004-08-20 07:03:09 51°12.396 2°48.278 245.2 13.6 242 12.3
2004-08-20 07:03:13 51°12.389 2°48.257 245.1 13.6 241 12.3
2004-08-20 07:03:19 51°12.378 2°48.225 244.8 13.6 241 12.3
2004-08-20 07:03:24 51°12.369 2°48.199 244.5 13.6 240 12.4
2004-08-20 07:03:29 51°12.359 2°48.173 244.1 13.6 241 12.3
2004-08-20 07:03:34 51°12.35 2°48.146 244 13.7 241 12.3
2004-08-20 07:03:38 51°12.343 2°48.125 244.5 13.7 241 12.3
2004-08-20 07:03:44 51°12.332 2°48.093 245.1 13.7 242 12.3
2004-08-20 07:03:48 51°12.325 2°48.072 245.3 13.6 242 12.4
2004-08-20 07:03:54 51°12.314 2°48.04 245.4 13.7 242 12.5
2004-08-20 07:03:59 51°12.306 2°48.013 245.5 13.7 242 12.4
2004-08-20 07:04:04 51°12.297 2°47.986 245.6 13.7 243 12.4
2004-08-20 07:04:09 51°12.288 2°47.959 245.9 13.8 243 12.5
2004-08-20 07:04:14 51°12.279 2°47.932 246.1 13.8 242 12.5
2004-08-20 07:04:18 51°12.272 2°47.911 246 13.8 243 12.3
2004-08-20 07:04:24 51°12.261 2°47.879 245.8 13.6 242 12.5
2004-08-20 07:04:28 51°12.254 2°47.857 245.4 13.7 242 12.4
2004-08-20 07:04:34 51°12.244 2°47.825 245.3 13.7 242 12.4
2004-08-20 07:04:39 51°12.235 2°47.799 245.3 13.7 242 12.4
2004-08-20 07:04:44 51°12.226 2°47.772 245.2 13.6 242 12.6
2004-08-20 07:04:49 51°12.217 2°47.746 245.2 13.6 242 12.5
2004-08-20 07:04:53 51°12.21 2°47.724 245 13.6 242 12.6
2004-08-20 07:04:59 51°12.199 2°47.693 244.9 13.6 241 12.3
2004-08-20 07:05:02 51°12.194 2°47.677 244.8 13.6 242 12.6
2004-08-20 07:05:08 51°12.183 2°47.645 245.2 13.6 242 12.5
2004-08-20 07:05:12 51°12.176 2°47.624 245.4 13.6 243 12.5
2004-08-20 07:05:16 51°12.169 2°47.602 245.5 13.7 242 12.5
2004-08-20 07:05:26 51°12.152 2°47.548 245.9 13.7 243 12.5
2004-08-20 07:05:32 51°12.141 2°47.516 245.8 13.7 242 12.5
2004-08-20 07:05:36 51°12.134 2°47.495 245.4 13.7 242 12.7
2004-08-20 07:05:42 51°12.123 2°47.463 245.2 13.7 242 12.5
2004-08-20 07:05:45 51°12.118 2°47.447 245 13.6 242 12.5
2004-08-20 07:05:52 51°12.105 2°47.41 244.9 13.6 242 12.7
2004-08-20 07:05:57 51°12.097 2°47.384 245.3 13.7 242 12.6
2004-08-20 07:06:05 51°12.083 2°47.341 245.6 13.6 242 12.3
2004-08-20 07:06:11 51°12.072 2°47.309 245.3 13.7 242 12.5
2004-08-20 07:06:16 51°12.063 2°47.282 245.3 13.7 243 12.5
2004-08-20 07:06:21 51°12.054 2°47.255 246 13.7 242 12.5
2004-08-20 07:06:25 51°12.047 2°47.234 245.7 13.7 242 12.6
2004-08-20 07:06:31 51°12.037 2°47.202 245.4 13.7 243 12.5
2004-08-20 07:06:33 51°12.033 2°47.191 245.4 13.7 243 12.5
2004-08-20 07:06:40 51°12.021 2°47.153 245.6 13.7 243 12.6
2004-08-20 07:06:44 51°12.014 2°47.132 245.8 13.7 243 12.5
2004-08-20 07:06:50 51°12.003 2°47.099 245.7 13.7 243 12.6
2004-08-20 07:06:55 51°11.995 2°47.072 245.6 13.7 242 12.5
2004-08-20 07:07:00 51°11.986 2°47.045 245.3 13.7 243 12.5
2004-08-20 07:07:04 51°11.979 2°47.024 245.5 13.7 243 12.6
2004-08-20 07:07:11 51°11.967 2°46.986 245.5 13.8 242 12.6
2004-08-20 07:07:16 51°11.958 2°46.959 245.6 13.8 243 12.6
2004-08-20 07:07:21 51°11.949 2°46.932 245.4 13.8 242 12.5
2004-08-20 07:07:25 51°11.942 2°46.911 245 13.8 242 12.5
2004-08-20 07:07:31 51°11.931 2°46.878 245.1 13.8 242 12.5
2004-08-20 07:07:33 51°11.928 2°46.868 244.8 13.8 242 12.6
2004-08-20 07:07:40 51°11.915 2°46.83 245.1 13.8 242 12.5
2004-08-20 07:07:46 51°11.904 2°46.797 245.3 13.8 243 12.5
2004-08-20 07:07:50 51°11.897 2°46.776 245.3 13.8 243 12.4
2004-08-20 07:07:56 51°11.887 2°46.743 245.5 13.8 242 12.5
2004-08-20 07:08:05 51°11.871 2°46.694 245.6 13.8 243 12.6
2004-08-20 07:08:12 51°11.859 2°46.656 245.7 13.8 243 12.5
2004-08-20 07:08:16 51°11.852 2°46.635 245.6 13.8 243 12.5
2004-08-20 07:08:20 51°11.845 2°46.613 245.7 13.7 243 12.5
2004-08-20 07:08:27 51°11.833 2°46.575 245.6 13.9 243 12.7
2004-08-20 07:08:32 51°11.824 2°46.548 245.6 13.8 243 12.6
2004-08-20 07:08:36 51°11.817 2°46.526 245.7 13.8 243 12.5
2004-08-20 07:08:40 51°11.81 2°46.504 245.7 13.8 242 12.7
2004-08-20 07:08:47 51°11.798 2°46.466 245.5 13.9 243 12.7
2004-08-20 07:08:52 51°11.789 2°46.44 245.3 13.7 242 12.5
2004-08-20 07:08:56 51°11.782 2°46.418 244.8 13.8 243 12.5
2004-08-20 07:09:00 51°11.775 2°46.396 245.2 13.9 243 12.5
2004-08-20 07:09:07 51°11.763 2°46.358 245.3 13.7 243 12.5
2004-08-20 07:09:12 51°11.754 2°46.331 245.4 13.9 243 12.6
2004-08-20 07:09:17 51°11.745 2°46.304 245.3 13.9 243 12.6
2004-08-20 07:09:22 51°11.736 2°46.277 245.5 13.8 243 12.4
2004-08-20 07:09:27 51°11.727 2°46.25 245.5 13.8 243 12.4
2004-08-20 07:09:32 51°11.719 2°46.223 245.3 13.9 243 12.5
2004-08-20 07:09:37 51°11.71 2°46.195 245.5 13.8 243 12.4
2004-08-20 07:09:42 51°11.701 2°46.168 245.5 13.8 243 12.5
2004-08-20 07:09:46 51°11.695 2°46.146 245.7 13.8 244 12.3
2004-08-20 07:09:52 51°11.684 2°46.114 245.8 13.8 243 12.4
2004-08-20 07:09:56 51°11.678 2°46.092 245.6 13.8 244 12.4
2004-08-20 07:10:00 51°11.671 2°46.07 245.8 13.8 243 12.4
2004-08-20 07:10:06 51°11.66 2°46.037 245.8 13.8 243 12.4
2004-08-20 07:10:12 51°11.649 2°46.005 245.5 13.9 242 12.3
2004-08-20 07:10:16 51°11.642 2°45.983 245 13.8 242 12.4
2004-08-20 07:10:20 51°11.635 2°45.962 244.5 13.8 241 12.4
2004-08-20 07:10:27 51°11.622 2°45.924 244.4 13.8 242 12.2
2004-08-20 07:10:32 51°11.614 2°45.897 244.5 13.8 242 12.3
2004-08-20 07:10:37 51°11.605 2°45.87 244.8 13.9 243 12.2
2004-08-20 07:10:42 51°11.596 2°45.843 245.3 13.9 243 12.3
2004-08-20 07:10:47 51°11.587 2°45.815 245.6 13.9 243 12.2
2004-08-20 07:10:52 51°11.578 2°45.788 245.4 13.9 243 12.1
2004-08-20 07:10:57 51°11.569 2°45.761 245.4 13.9 242 12.2
2004-08-20 07:11:05 51°11.556 2°45.717 245.3 13.8 243 12.2
2004-08-20 07:11:12 51°11.543 2°45.679 245.3 13.8 243 12.1
2004-08-20 07:11:16 51°11.536 2°45.658 245.2 13.8 243 12.1
2004-08-20 07:11:20 51°11.529 2°45.636 245.1 13.8 242 12
2004-08-20 07:11:26 51°11.518 2°45.604 244.5 13.9 242 12.2
2004-08-20 07:11:32 51°11.508 2°45.571 244.7 13.8 242 11.9
2004-08-20 07:11:37 51°11.499 2°45.544 244.6 13.8 243 12.1
2004-08-20 07:11:40 51°11.494 2°45.528 245.1 13.8 243 11.9
2004-08-20 07:11:45 51°11.485 2°45.501 245.1 13.7 242 12
2004-08-20 07:11:52 51°11.473 2°45.463 245.1 13.8 243 11.9
2004-08-20 07:11:57 51°11.464 2°45.436 245.1 13.8 243 12
2004-08-20 07:12:00 51°11.459 2°45.42 245.2 13.8 243 12
2004-08-20 07:12:04 51°11.452 2°45.398 245.1 13.8 243 11.9
2004-08-20 07:12:12 51°11.438 2°45.355 244.8 13.8 242 11.9
2004-08-20 07:12:17 51°11.429 2°45.328 245 13.8 243 11.9
2004-08-20 07:12:20 51°11.424 2°45.312 245.1 13.8 243 11.9
2004-08-20 07:12:24 51°11.417 2°45.29 245.3 13.8 243 11.8
2004-08-20 07:12:32 51°11.403 2°45.246 245.7 13.8 243 11.8
2004-08-20 07:12:36 51°11.397 2°45.224 245.8 13.8 244 11.9
2004-08-20 07:12:40 51°11.39 2°45.202 245.8 13.8 244 11.8
2004-08-20 07:12:44 51°11.383 2°45.18 245.9 13.8 244 11.8
2004-08-20 07:12:52 51°11.37 2°45.137 245.9 13.8 243 11.7
2004-08-20 07:12:56 51°11.363 2°45.115 246 13.8 244 11.8
2004-08-20 07:13:00 51°11.356 2°45.093 245.9 13.8 244 11.7
2004-08-20 07:13:07 51°11.344 2°45.054 245.8 13.8 244 11.7
2004-08-20 07:13:12 51°11.335 2°45.027 245.8 13.8 244 11.7
2004-08-20 07:13:17 51°11.327 2°45 245.7 13.8 243 11.7
2004-08-20 07:13:22 51°11.318 2°44.973 245.3 13.8 244 11.6
2004-08-20 07:13:25 51°11.313 2°44.956 245.3 13.8 243 11.6
2004-08-20 07:13:32 51°11.301 2°44.918 245.4 13.8 243 11.7
2004-08-20 07:13:36 51°11.294 2°44.897 245.4 13.8 243 11.6
2004-08-20 07:13:42 51°11.284 2°44.864 245.3 13.8 243 11.6
2004-08-20 07:13:45 51°11.279 2°44.847 245.6 13.8 243 11.5
2004-08-20 07:13:52 51°11.267 2°44.809 245.3 13.8 243 11.5
2004-08-20 07:13:56 51°11.259 2°44.787 245.3 13.9 243 11.5
2004-08-20 07:14:00 51°11.253 2°44.766 245.1 13.8 243 11.5
2004-08-20 07:14:05 51°11.244 2°44.738 245.1 13.8 243 11.4
2004-08-20 07:14:12 51°11.231 2°44.7 245 13.8 243 11.4
2004-08-20 07:14:17 51°11.223 2°44.673 244.7 13.8 242 11.4
2004-08-20 07:14:20 51°11.217 2°44.657 244.7 13.9 243 11.4
2004-08-20 07:14:25 51°11.209 2°44.63 244.9 13.9 243 11.3
2004-08-20 07:14:32 51°11.197 2°44.592 245.3 13.9 243 11.5
2004-08-20 07:14:36 51°11.19 2°44.571 245.3 13.7 243 11.2
2004-08-20 07:14:40 51°11.183 2°44.549 245 13.7 242 11.2
2004-08-20 07:14:44 51°11.176 2°44.528 244.8 13.8 243 11.2
2004-08-20 07:14:52 51°11.162 2°44.484 244.6 13.7 243 11.3
2004-08-20 07:14:56 51°11.155 2°44.463 245 13.7 243 11.2
2004-08-20 07:15:00 51°11.149 2°44.441 245.3 13.7 244 11.2
2004-08-20 07:15:05 51°11.14 2°44.414 246 13.8 244 11.1
2004-08-20 07:15:12 51°11.129 2°44.375 246.2 13.7 244 11.2
2004-08-20 07:15:16 51°11.122 2°44.354 246.3 13.7 244 11.2
2004-08-20 07:15:22 51°11.112 2°44.321 245.6 13.7 244 11.1
2004-08-20 07:15:27 51°11.103 2°44.294 245.5 13.7 243 11.1
2004-08-20 07:15:32 51°11.095 2°44.267 245.2 13.7 243 11
2004-08-20 07:15:36 51°11.088 2°44.245 245.1 13.7 243 11.1
2004-08-20 07:15:40 51°11.081 2°44.224 245.5 13.7 243 10.9
2004-08-20 07:15:47 51°11.069 2°44.186 244.9 13.7 244 11.1
2004-08-20 07:15:52 51°11.061 2°44.159 245.3 13.7 244 11
2004-08-20 07:15:57 51°11.052 2°44.131 245.3 13.7 244 11
2004-08-20 07:16:02 51°11.044 2°44.104 245.5 13.8 244 11
2004-08-20 07:16:05 51°11.039 2°44.088 245.5 13.7 244 11
2004-08-20 07:16:12 51°11.026 2°44.049 245.3 13.8 244 11
2004-08-20 07:16:17 51°11.018 2°44.022 245.5 13.7 244 10.9
2004-08-20 07:16:25 51°11.004 2°43.978 245.3 13.9 245 10.9
2004-08-20 07:16:32 51°10.991 2°43.94 245.1 13.7 243 10.9
2004-08-20 07:16:37 51°10.982 2°43.913 245 13.8 243 10.9
2004-08-20 07:16:40 51°10.977 2°43.897 244.5 13.8 243 10.9
2004-08-20 07:16:44 51°10.971 2°43.875 244.7 13.8 244 10.9
2004-08-20 07:16:52 51°10.957 2°43.831 245.2 13.8 244 10.9
2004-08-20 07:16:57 51°10.949 2°43.803 245.9 13.8 245 10.8
2004-08-20 07:17:00 51°10.944 2°43.787 246 13.8 244 10.8
2004-08-20 07:17:06 51°10.934 2°43.754 245.9 13.8 245 10.7
2004-08-20 07:17:12 51°10.924 2°43.721 245.9 13.8 244 10.8
2004-08-20 07:17:16 51°10.917 2°43.699 245.7 13.8 244 10.7
2004-08-20 07:17:20 51°10.911 2°43.677 245.3 13.8 243 10.7
2004-08-20 07:17:24 51°10.904 2°43.656 244.8 13.8 243 10.7
2004-08-20 07:17:32 51°10.89 2°43.612 244.8 13.9 243 10.6
2004-08-20 07:17:36 51°10.883 2°43.59 244.7 13.9 244 10.6
2004-08-20 07:17:42 51°10.873 2°43.557 245.1 13.8 244 10.6
2004-08-20 07:17:47 51°10.865 2°43.53 245.2 13.8 244 10.6
2004-08-20 07:17:52 51°10.856 2°43.503 245.1 13.8 244 10.5
2004-08-20 07:17:56 51°10.849 2°43.48 244.8 13.9 244 10.5
2004-08-20 07:18:02 51°10.84 2°43.447 245.3 13.9 245 10.5
2004-08-20 07:18:07 51°10.834 2°43.418 248.8 13.8 250 10.5
2004-08-20 07:18:12 51°10.829 2°43.389 252.7 13.7 254 10.4
2004-08-20 07:18:16 51°10.826 2°43.365 256.4 13.7 258 10.5
2004-08-20 07:18:22 51°10.824 2°43.329 261.6 13.7 262 10.5
2004-08-20 07:18:27 51°10.823 2°43.298 265.5 13.8 266 10.6
2004-08-20 07:18:32 51°10.822 2°43.268 268.2 13.8 268 10.6
2004-08-20 07:18:37 51°10.822 2°43.237 270.2 13.9 269 10.6
2004-08-20 07:18:40 51°10.822 2°43.219 272 13.9 270 10.8
2004-08-20 07:18:46 51°10.822 2°43.182 273.1 13.9 271 10.8
2004-08-20 07:18:52 51°10.823 2°43.145 273.8 14 271 10.9
2004-08-20 07:18:57 51°10.823 2°43.114 274 14 271 11
2004-08-20 07:19:02 51°10.824 2°43.083 274 14 271 11.1
2004-08-20 07:19:05 51°10.824 2°43.064 274.5 14 272 11.1
2004-08-20 07:19:12 51°10.826 2°43.021 275.8 14.1 273 11.1
2004-08-20 07:19:17 51°10.827 2°42.99 276.6 14.1 274 11.2
2004-08-20 07:19:20 51°10.828 2°42.971 277.2 14.1 274 11.4
2004-08-20 07:19:24 51°10.829 2°42.947 277.7 14 275 11.3
2004-08-20 07:19:32 51°10.832 2°42.897 278 14 274 11.4
2004-08-20 07:19:36 51°10.833 2°42.873 277.9 14.1 274 11.4
2004-08-20 07:19:40 51°10.834 2°42.848 277.5 14.1 274 11.4
2004-08-20 07:19:46 51°10.836 2°42.811 277.4 14.1 274 11.5
2004-08-20 07:19:52 51°10.838 2°42.774 277.3 14.1 275 11.6
2004-08-20 07:19:56 51°10.839 2°42.749 277.5 14.1 274 11.6
2004-08-20 07:20:00 51°10.84 2°42.724 277.8 14.1 275 11.6
2004-08-20 07:20:05 51°10.842 2°42.693 277.9 14.1 275 11.7
2004-08-20 07:20:12 51°10.844 2°42.65 278.1 14.1 275 11.8
2004-08-20 07:20:17 51°10.846 2°42.619 278.2 14.1 275 11.8
2004-08-20 07:20:20 51°10.847 2°42.6 278.2 14.1 275 11.8
2004-08-20 07:20:26 51°10.849 2°42.563 278.2 14.1 275 11.8
2004-08-20 07:20:32 51°10.852 2°42.526 278.7 14 277 11.8
2004-08-20 07:20:37 51°10.854 2°42.495 279.6 14 277 11.8
2004-08-20 07:20:42 51°10.857 2°42.464 280.2 14.1 278 11.9
2004-08-20 07:20:45 51°10.859 2°42.446 280.8 14.1 278 11.8
2004-08-20 07:20:52 51°10.863 2°42.403 281.2 14.1 278 12
2004-08-20 07:20:57 51°10.866 2°42.372 281.6 14 279 12
2004-08-20 07:21:00 51°10.868 2°42.354 281.7 14.1 278 12.1
2004-08-20 07:21:04 51°10.87 2°42.329 281.7 14.1 279 12.2
2004-08-20 07:21:12 51°10.875 2°42.28 281.5 14 278 12.1
2004-08-20 07:21:16 51°10.877 2°42.255 281.4 14.1 278 12.2
2004-08-20 07:21:20 51°10.879 2°42.231 281 14.1 278 12.3
2004-08-20 07:21:26 51°10.881 2°42.194 280.8 13.8 278 12.2
2004-08-20 07:21:32 51°10.884 2°42.157 280.4 14 278 12.2
2004-08-20 07:21:37 51°10.887 2°42.126 280.7 14 278 12.2
2004-08-20 07:21:42 51°10.89 2°42.096 281 14 278 12.3
2004-08-20 07:21:45 51°10.891 2°42.077 281.2 14 278 12.2
2004-08-20 07:21:52 51°10.895 2°42.035 281.2 14 278 12.2
2004-08-20 07:21:57 51°10.898 2°42.004 281.2 14 278 12.2
2004-08-20 07:22:02 51°10.901 2°41.973 281.2 14 278 12.3
2004-08-20 07:22:07 51°10.904 2°41.943 281.2 14 278 12.3
2004-08-20 07:22:12 51°10.907 2°41.912 281.2 14 279 12.2
2004-08-20 07:22:17 51°10.91 2°41.881 281.2 14 279 12.2
2004-08-20 07:22:20 51°10.911 2°41.863 281.2 14 279 12.2
2004-08-20 07:22:26 51°10.915 2°41.826 281.4 14 278 12.2
2004-08-20 07:22:32 51°10.918 2°41.79 281.5 13.9 278 12.1
2004-08-20 07:22:37 51°10.918 2°41.759 280.2 13.8 272 12.1
2004-08-20 07:22:40 51°10.918 2°41.741 274.9 13.7 269 12.2
2004-08-20 07:22:44 51°10.917 2°41.717 270.1 13.7 265 12
2004-08-20 07:22:52 51°10.911 2°41.67 264.4 13.6 257 12.1
2004-08-20 07:22:56 51°10.907 2°41.647 259.2 13.6 254 12.1
2004-08-20 07:23:02 51°10.899 2°41.613 255.4 13.5 252 12
2004-08-20 07:23:07 51°10.891 2°41.586 251.1 13.6 246 12.1
2004-08-20 07:23:12 51°10.883 2°41.559 247.1 13.5 244 12.1
2004-08-20 07:23:17 51°10.874 2°41.533 244 13.6 242 12.1
2004-08-20 07:23:20 51°10.868 2°41.517 241.9 13.6 241 12.1
2004-08-20 07:23:24 51°10.861 2°41.497 240.5 13.6 240 12.1
2004-08-20 07:23:32 51°10.845 2°41.455 239.3 13.7 238 12
2004-08-20 07:23:36 51°10.837 2°41.435 238.3 13.6 238 12.1
2004-08-20 07:23:42 51°10.824 2°41.405 237.3 13.7 237 12.1
2004-08-20 07:23:45 51°10.818 2°41.39 237 13.6 237 12.1
2004-08-20 07:23:52 51°10.802 2°41.356 235.4 13.7 233 12.1
2004-08-20 07:23:57 51°10.79 2°41.332 233.2 13.6 232 12.1
2004-08-20 07:24:00 51°10.783 2°41.318 231.2 13.7 231 12.1
2004-08-20 07:24:04 51°10.773 2°41.299 230.5 13.7 231 12.1
2004-08-20 07:24:12 51°10.754 2°41.262 230 13.7 230 12.1
2004-08-20 07:24:16 51°10.744 2°41.244 229.5 13.7 229 12
2004-08-20 07:24:26 51°10.719 2°41.198 228.7 13.7 229 12.2
2004-08-20 07:24:32 51°10.704 2°41.17 228.4 13.7 229 12.1
2004-08-20 07:24:36 51°10.694 2°41.151 228.2 13.7 229 12.1
2004-08-20 07:24:42 51°10.679 2°41.124 228.2 13.7 229 12.2
2004-08-20 07:24:45 51°10.672 2°41.11 228.3 13.8 230 12.2
2004-08-20 07:24:52 51°10.654 2°41.078 229 13.7 229 12.3
2004-08-20 07:24:57 51°10.641 2°41.055 228.9 13.7 230 12
2004-08-20 07:25:05 51°10.622 2°41.018 228.6 13.7 230 12.1
2004-08-20 07:25:10 51°10.609 2°40.995 228.4 13.7 229 12.1
2004-08-20 07:25:15 51°10.597 2°40.972 228.9 13.7 230 12
2004-08-20 07:25:20 51°10.584 2°40.949 228.8 13.8 230 12.1
2004-08-20 07:25:24 51°10.574 2°40.93 229.2 13.8 230 12.1
2004-08-20 07:25:31 51°10.557 2°40.897 229.3 13.8 230 12
2004-08-20 07:25:36 51°10.545 2°40.873 229.6 13.8 231 12.1
2004-08-20 07:25:40 51°10.536 2°40.855 230 13.7 231 12.2
2004-08-20 07:25:46 51°10.522 2°40.827 230 13.7 230 12.1
2004-08-20 07:25:50 51°10.512 2°40.808 229.3 13.8 230 12.1
2004-08-20 07:25:56 51°10.497 2°40.78 229.3 13.8 230 12.2
2004-08-20 07:26:00 51°10.488 2°40.761 229.5 13.8 231 12.1
2004-08-20 07:26:04 51°10.478 2°40.743 229.5 13.7 230 12.1
2004-08-20 07:26:12 51°10.458 2°40.705 229.3 13.7 230 12.1
2004-08-20 07:26:16 51°10.448 2°40.687 229.3 13.8 230 12.1
2004-08-20 07:26:26 51°10.424 2°40.64 229.4 13.7 230 12
2004-08-20 07:26:31 51°10.411 2°40.617 229.3 13.8 230 12
2004-08-20 07:26:36 51°10.399 2°40.593 229.2 13.7 230 11.9
2004-08-20 07:26:40 51°10.389 2°40.575 228.7 13.7 231 11.9
2004-08-20 07:26:46 51°10.374 2°40.547 229 13.8 230 11.8
2004-08-20 07:26:48 51°10.369 2°40.537 229.2 13.8 230 11.9
2004-08-20 07:26:56 51°10.35 2°40.5 229.1 13.7 231 11.9
2004-08-20 07:27:00 51°10.34 2°40.481 229.6 13.7 230 11.8
2004-08-20 07:27:04 51°10.331 2°40.463 229.2 13.8 231 11.7
2004-08-20 07:27:10 51°10.316 2°40.434 230 13.8 231 11.7
2004-08-20 07:27:16 51°10.302 2°40.406 230 13.8 231 11.8
2004-08-20 07:27:20 51°10.293 2°40.387 230.1 13.8 232 11.7
2004-08-20 07:27:26 51°10.278 2°40.358 230.4 13.8 231 11.7
2004-08-20 07:27:28 51°10.274 2°40.349 230.5 13.8 232 11.7
2004-08-20 07:27:35 51°10.257 2°40.315 230.8 13.8 231 11.6
2004-08-20 07:27:40 51°10.245 2°40.291 230.2 13.8 231 11.6
2004-08-20 07:27:46 51°10.23 2°40.263 230.1 13.8 231 11.6
2004-08-20 07:27:48 51°10.225 2°40.253 230 13.8 231 11.6
2004-08-20 07:27:55 51°10.208 2°40.22 229.9 13.9 231 11.6
2004-08-20 07:28:00 51°10.196 2°40.196 230 13.8 231 11.4
2004-08-20 07:28:04 51°10.187 2°40.177 230 13.8 231 11.4
2004-08-20 07:28:10 51°10.173 2°40.148 230 13.8 232 11.5
2004-08-20 07:28:16 51°10.158 2°40.12 230 13.9 231 11.4
2004-08-20 07:28:26 51°10.134 2°40.072 229.6 13.8 231 11.2
2004-08-20 07:28:32 51°10.119 2°40.044 229.3 13.9 231 11.2
2004-08-20 07:28:36 51°10.11 2°40.025 229.6 13.8 231 11
2004-08-20 07:28:42 51°10.095 2°39.997 229.5 13.8 231 11
2004-08-20 07:28:45 51°10.088 2°39.983 229.3 13.8 230 11
2004-08-20 07:28:52 51°10.071 2°39.949 229.6 13.8 231 10.9
2004-08-20 07:28:57 51°10.059 2°39.925 229.8 13.8 231 10.9
2004-08-20 07:29:05 51°10.04 2°39.887 230.1 13.8 232 10.9
2004-08-20 07:29:10 51°10.028 2°39.863 230.3 13.8 232 10.8
2004-08-20 07:29:15 51°10.016 2°39.839 230.3 13.8 232 10.8
2004-08-20 07:29:20 51°10.004 2°39.815 230.7 13.8 231 10.7
2004-08-20 07:29:24 51°9.995 2°39.796 230.6 13.8 232 10.5
2004-08-20 07:29:31 51°9.978 2°39.763 230 13.7 231 10.5
2004-08-20 07:29:36 51°9.965 2°39.739 230.1 13.7 231 10.6
2004-08-20 07:29:40 51°9.955 2°39.72 230 13.8 232 10.5
2004-08-20 07:29:46 51°9.941 2°39.692 230.1 13.8 231 10.5
2004-08-20 07:29:50 51°9.932 2°39.672 230.2 13.8 232 10.5
2004-08-20 07:29:55 51°9.92 2°39.649 230.3 13.8 231 10.3
2004-08-20 07:30:01 51°9.905 2°39.62 230 13.8 231 10.4
2004-08-20 07:30:06 51°9.894 2°39.596 230.7 13.8 232 10.4
2004-08-20 07:30:11 51°9.882 2°39.572 230.3 13.8 232 10.3
2004-08-20 07:30:16 51°9.87 2°39.548 230 13.9 232 10.3
2004-08-20 07:30:20 51°9.86 2°39.529 230.4 13.9 232 10.4
2004-08-20 07:30:25 51°9.849 2°39.505 230.6 13.9 232 10.3
2004-08-20 07:30:31 51°9.834 2°39.476 230.7 13.8 232 10.3
2004-08-20 07:30:36 51°9.822 2°39.452 230.2 13.9 231 10.3
2004-08-20 07:30:45 51°9.801 2°39.41 229.9 13.9 231 10.2
2004-08-20 07:30:50 51°9.789 2°39.386 229.7 13.8 231 10.2
2004-08-20 07:30:55 51°9.776 2°39.362 229.3 13.9 231 10.1
2004-08-20 07:31:00 51°9.765 2°39.338 229.5 13.9 232 10.1
2004-08-20 07:31:04 51°9.755 2°39.318 230 13.9 233 10.1
2004-08-20 07:31:10 51°9.742 2°39.288 231.1 13.9 234 10
2004-08-20 07:31:15 51°9.733 2°39.261 234.9 13.9 241 10
2004-08-20 07:31:20 51°9.724 2°39.234 239.4 13.8 243 10
2004-08-20 07:31:24 51°9.718 2°39.211 243.5 13.8 246 10.1
2004-08-20 07:31:31 51°9.709 2°39.171 245.6 13.8 249 10.1
2004-08-20 07:31:36 51°9.705 2°39.141 249.7 13.7 256 10.1
2004-08-20 07:31:41 51°9.704 2°39.111 257.5 13.7 263 10.1
2004-08-20 07:31:45 51°9.705 2°39.087 265.4 13.7 270 10.2
2004-08-20 07:31:51 51°9.709 2°39.051 273.4 13.6 279 10.2
2004-08-20 07:31:56 51°9.714 2°39.023 279.9 13.5 288 10.3
2004-08-20 07:32:01 51°9.722 2°38.996 288 13.4 294 10.4
2004-08-20 07:32:04 51°9.728 2°38.981 296.1 13.4 299 10.5
2004-08-20 07:32:11 51°9.744 2°38.948 305.7 13.4 306 10.6
2004-08-20 07:32:16 51°9.756 2°38.925 311.7 13.4 310 10.8
2004-08-20 07:32:20 51°9.765 2°38.906 313.8 13.6 307 10.9
2004-08-20 07:32:26 51°9.779 2°38.877 312 13.7 307 11
2004-08-20 07:32:31 51°9.791 2°38.852 311.5 13.7 307 11.3
2004-08-20 07:32:36 51°9.803 2°38.828 311.3 13.9 307 11.3
2004-08-20 07:32:40 51°9.812 2°38.808 311.1 13.9 307 11.6
2004-08-20 07:32:45 51°9.824 2°38.784 311.3 14 307 11.7
2004-08-20 07:32:51 51°9.838 2°38.754 311.5 14.1 308 11.9
2004-08-20 07:32:56 51°9.85 2°38.73 312 14.1 308 12.2
2004-08-20 07:33:00 51°9.859 2°38.71 312 14.1 308 12.4
2004-08-20 07:33:05 51°9.871 2°38.685 312.3 14.1 308 12.6
2004-08-20 07:33:11 51°9.886 2°38.656 312.3 14.2 308 12.9
2004-08-20 07:33:16 51°9.898 2°38.631 312.4 14.2 308 13.1
2004-08-20 07:33:21 51°9.911 2°38.607 312.7 14.2 308 13.3
2004-08-20 07:33:25 51°9.92 2°38.587 312.8 14.2 308 13.6
2004-08-20 07:33:31 51°9.935 2°38.557 312.7 14.2 308 13.8
2004-08-20 07:33:36 51°9.947 2°38.532 312.6 14.1 308 14.1
2004-08-20 07:33:39 51°9.954 2°38.518 312.5 14.1 308 14.2
2004-08-20 07:33:44 51°9.966 2°38.493 312.3 14.1 308 14.4
2004-08-20 07:33:50 51°9.981 2°38.464 312.3 14.1 308 14.6
2004-08-20 07:33:55 51°9.993 2°38.439 312.2 14.1 308 14.7
2004-08-20 07:34:00 51°10.005 2°38.415 312.3 14.1 308 14.9
2004-08-20 07:34:06 51°10.019 2°38.386 312.3 14.1 308 14.9
2004-08-20 07:34:10 51°10.029 2°38.366 312.4 14.1 308 15.4
2004-08-20 07:34:16 51°10.044 2°38.337 312.7 14.1 308 15.5
2004-08-20 07:34:21 51°10.056 2°38.313 312.8 14.1 309 15.7
2004-08-20 07:34:25 51°10.066 2°38.293 313 14.1 309 15.7
2004-08-20 07:34:31 51°10.082 2°38.264 313.1 14.2 309 15.8
2004-08-20 07:34:36 51°10.094 2°38.24 313.2 14 309 15.9
2004-08-20 07:34:39 51°10.101 2°38.226 313.1 14 309 15.9
2004-08-20 07:34:44 51°10.113 2°38.202 313.5 14.1 309 15.8
2004-08-20 07:34:50 51°10.128 2°38.172 313.5 14 309 16.1
2004-08-20 07:34:55 51°10.14 2°38.147 313.3 14 307 16.2
2004-08-20 07:35:00 51°10.15 2°38.121 310.7 13.9 302 16
2004-08-20 07:35:06 51°10.161 2°38.089 306.6 13.9 299 15.9
2004-08-20 07:35:10 51°10.167 2°38.067 302.2 13.9 296 15.9
2004-08-20 07:35:16 51°10.174 2°38.032 297.2 13.9 290 16
2004-08-20 07:35:21 51°10.179 2°38.003 291.6 13.9 286 16.2
2004-08-20 07:35:25 51°10.182 2°37.979 288.8 13.9 284 16.2
2004-08-20 07:35:31 51°10.187 2°37.943 285.9 13.9 283 16.1
2004-08-20 07:35:36 51°10.191 2°37.913 284.6 14 280 16.2
2004-08-20 07:35:39 51°10.192 2°37.895 283.2 13.9 279 16.2
2004-08-20 07:35:44 51°10.194 2°37.864 280.8 13.9 276 16.5
2004-08-20 07:35:50 51°10.194 2°37.827 275.7 13.9 271 16.6
2004-08-20 07:35:55 51°10.193 2°37.797 270.8 13.9 265 16.7
2004-08-20 07:36:00 51°10.191 2°37.766 266.6 13.9 263 16.8
2004-08-20 07:36:04 51°10.188 2°37.742 264 13.9 262 16.8
2004-08-20 07:36:10 51°10.184 2°37.706 261.9 13.9 260 17
2004-08-20 07:36:15 51°10.178 2°37.677 257.7 13.7 251 16.9
2004-08-20 07:36:20 51°10.171 2°37.649 252.6 13.7 249 17.1
2004-08-20 07:36:24 51°10.165 2°37.627 247.5 13.6 244 17.1
2004-08-20 07:36:30 51°10.154 2°37.596 242.7 13.7 241 17.1
2004-08-20 07:36:35 51°10.144 2°37.57 239.2 13.8 237 17.2
2004-08-20 07:36:40 51°10.133 2°37.545 236.7 13.8 236 17.2
2004-08-20 07:36:45 51°10.122 2°37.52 235.1 13.8 235 17.1
2004-08-20 07:36:51 51°10.108 2°37.491 233.4 13.8 234 17.2
2004-08-20 07:36:56 51°10.097 2°37.466 232.4 13.9 234 17.1
2004-08-20 07:37:01 51°10.085 2°37.441 232.2 13.9 233 17.2
2004-08-20 07:37:04 51°10.078 2°37.426 232 14 233 17.2
2004-08-20 07:37:11 51°10.062 2°37.392 231.7 14 233 17.1
2004-08-20 07:37:16 51°10.05 2°37.367 231.4 14 233 17.1
2004-08-20 07:37:26 51°10.027 2°37.318 231.5 14 233 17
2004-08-20 07:37:28 51°10.022 2°37.308 231.2 14 233 17.1
2004-08-20 07:37:35 51°10.005 2°37.273 231.5 14 233 17
2004-08-20 07:37:40 51°9.994 2°37.249 231.5 14 233 17
2004-08-20 07:37:45 51°9.982 2°37.224 231.5 14 233 16.9
2004-08-20 07:37:48 51°9.975 2°37.209 231.5 14 233 16.7
2004-08-20 07:37:56 51°9.957 2°37.17 231.3 14.1 233 16.9
2004-08-20 07:38:01 51°9.945 2°37.146 231.3 14 233 16.7
2004-08-20 07:38:05 51°9.935 2°37.127 231.2 14 232 16.6
2004-08-20 07:38:11 51°9.921 2°37.097 231.1 13.9 233 16.5
2004-08-20 07:38:16 51°9.909 2°37.073 230.8 14 233 16.8
2004-08-20 07:38:20 51°9.9 2°37.053 231 14 233 16.3
2004-08-20 07:38:25 51°9.888 2°37.028 231.3 14 233 16.3
2004-08-20 07:38:31 51°9.875 2°36.998 231.7 14 234 16.5
2004-08-20 07:38:36 51°9.863 2°36.974 231.8 14 233 16.6
2004-08-20 07:38:45 51°9.843 2°36.929 231.6 14 233 16.4
2004-08-20 07:38:50 51°9.831 2°36.904 231.4 14 233 16.6
2004-08-20 07:38:55 51°9.819 2°36.88 231.2 14.1 232 16.5
2004-08-20 07:39:00 51°9.808 2°36.855 231.1 14.1 233 16.7
2004-08-20 07:39:04 51°9.798 2°36.835 231.5 14.1 233 16.4
2004-08-20 07:39:10 51°9.785 2°36.805 231.8 14.1 233 16.5
2004-08-20 07:39:16 51°9.771 2°36.775 231.5 14.1 233 16.4
2004-08-20 07:39:20 51°9.761 2°36.756 231.7 14 233 16.3
2004-08-20 07:39:26 51°9.747 2°36.725 231.8 14 233 16.3
2004-08-20 07:39:30 51°9.738 2°36.705 231.7 14 233 16.7
2004-08-20 07:39:36 51°9.723 2°36.675 231.9 14 233 16.6
2004-08-20 07:39:41 51°9.712 2°36.65 231.7 14.1 234 16.5
2004-08-20 07:39:44 51°9.705 2°36.635 232.1 14.1 234 16.2
2004-08-20 07:39:48 51°9.696 2°36.615 232.1 14.1 233 16.1
2004-08-20 07:39:54 51°9.682 2°36.585 232.2 14.1 234 16.5
2004-08-20 07:40:00 51°9.668 2°36.555 232.4 14.1 234 16.1
2004-08-20 07:40:04 51°9.659 2°36.535 232.2 14.1 234 16.2
2004-08-20 07:40:10 51°9.645 2°36.505 232.2 14.1 234 16.2
2004-08-20 07:40:15 51°9.633 2°36.48 232 14.1 234 15.9
2004-08-20 07:40:20 51°9.622 2°36.455 231.7 14.1 234 16.1
2004-08-20 07:40:24 51°9.613 2°36.435 231.9 14.1 234 15.7
2004-08-20 07:40:30 51°9.599 2°36.405 232.2 14.1 234 15.6
2004-08-20 07:40:35 51°9.587 2°36.379 231.7 14.1 234 16.1
2004-08-20 07:40:40 51°9.576 2°36.354 231.8 14.1 234 15.7
2004-08-20 07:40:44 51°9.566 2°36.334 231.9 14.1 233 16
2004-08-20 07:40:50 51°9.553 2°36.304 231.9 14.2 234 16
2004-08-20 07:40:55 51°9.541 2°36.279 232.2 14.1 233 15.5
2004-08-20 07:41:00 51°9.53 2°36.254 232.2 14.1 235 15.8
2004-08-20 07:41:04 51°9.521 2°36.233 232.4 14.1 235 15.5
2004-08-20 07:41:10 51°9.509 2°36.201 235.4 14.1 239 15.5
2004-08-20 07:41:15 51°9.499 2°36.174 238.4 14.1 242 15.4
2004-08-20 07:41:20 51°9.491 2°36.145 241.1 14.1 245 15.5
2004-08-20 07:41:24 51°9.485 2°36.123 243.2 14.1 246 15.9
2004-08-20 07:41:30 51°9.477 2°36.087 246 14.1 247 15.7
2004-08-20 07:41:36 51°9.471 2°36.051 250.8 14 255 16
2004-08-20 07:41:46 51°9.465 2°35.99 260.9 14 262 15.9
2004-08-20 07:41:52 51°9.464 2°35.952 264.9 14.1 266 15.5
2004-08-20 07:41:56 51°9.464 2°35.928 267.7 14.1 269 15.9
2004-08-20 07:42:02 51°9.465 2°35.89 271 14.1 270 16.1
2004-08-20 07:42:05 51°9.466 2°35.872 274.7 14.1 275 15.7
2004-08-20 07:42:12 51°9.472 2°35.83 279 14.1 281 16.3
2004-08-20 07:42:16 51°9.476 2°35.805 283.8 14.1 286 16.5
2004-08-20 07:42:22 51°9.483 2°35.769 288.1 14.1 287 16.4
2004-08-20 07:42:27 51°9.491 2°35.741 292.1 14.1 293 16
2004-08-20 07:42:32 51°9.5 2°35.713 296.4 14 297 16.6
2004-08-20 07:42:37 51°9.51 2°35.687 301.1 14 301 16.1
2004-08-20 07:42:42 51°9.522 2°35.662 305.4 14 305 16.5
2004-08-20 07:42:44 51°9.527 2°35.653 310.5 14 307 16.6
2004-08-20 07:42:53 51°9.55 2°35.611 314.5 14 312 16.7
2004-08-20 07:42:59 51°9.567 2°35.586 317.4 14 315 16.9
2004-08-20 07:43:04 51°9.582 2°35.565 321.7 13.9 319 17.2
2004-08-20 07:43:08 51°9.594 2°35.55 324.4 13.9 321 17.5
2004-08-20 07:43:14 51°9.612 2°35.528 326.6 13.9 322 17.7
2004-08-20 07:43:19 51°9.627 2°35.51 327.8 13.9 323 17.5
2004-08-20 07:43:24 51°9.643 2°35.492 329.1 13.9 325 17.5
2004-08-20 07:43:28 51°9.656 2°35.478 329.6 13.9 325 17.5
2004-08-20 07:43:34 51°9.675 2°35.458 330.2 13.9 326 18
2004-08-20 07:43:36 51°9.682 2°35.452 333.1 13.8 331 18
2004-08-20 07:43:44 51°9.709 2°35.429 335.9 13.8 332 18.1
2004-08-20 07:43:48 51°9.723 2°35.419 337.9 13.7 335 17.8
2004-08-20 07:43:54 51°9.743 2°35.403 340 13.7 334 17.8
2004-08-20 07:43:59 51°9.761 2°35.391 340.8 13.7 336 17.8
2004-08-20 07:44:04 51°9.778 2°35.379 341.4 13.7 336 17.7
2004-08-20 07:44:13 51°9.809 2°35.357 342.9 13.7 337 17.6
2004-08-20 07:44:19 51°9.83 2°35.343 342.8 13.7 337 17.4
2004-08-20 07:44:23 51°9.844 2°35.334 343 13.7 337 17.3
2004-08-20 07:44:29 51°9.865 2°35.32 342.6 13.7 337 16.9
2004-08-20 07:44:32 51°9.876 2°35.314 344.3 13.6 340 16.6
2004-08-20 07:44:42 51°9.912 2°35.301 350.5 13.4 347 15.7
2004-08-20 07:44:44 51°9.92 2°35.299 354.1 13.4 350 15.1
2004-08-20 07:44:52 51°9.949 2°35.294 357.7 13.3 354 14.1
2004-08-20 07:44:57 51°9.967 2°35.291 359.5 13.3 354 14.1
2004-08-20 07:45:00 51°9.978 2°35.289 0.4 13.3 355 12.7
2004-08-20 07:45:04 51°9.993 2°35.288 1.3 13.3 357 11.9
2004-08-20 07:45:12 51°10.023 2°35.285 2.2 13.2 357 11.3
2004-08-20 07:45:17 51°10.041 2°35.284 3.2 13.1 358 10.8
2004-08-20 07:45:22 51°10.059 2°35.283 3.6 13.1 358 10.6
2004-08-20 07:45:25 51°10.07 2°35.283 3.7 13 359 10.3
2004-08-20 07:45:32 51°10.095 2°35.283 4.4 13.2   10.1
2004-08-20 07:45:36 51°10.11 2°35.283 4.3 13.2 1 10.1
2004-08-20 07:45:40 51°10.124 2°35.285 6.9 13.2 5 9.9
2004-08-20 07:45:46 51°10.146 2°35.29 10.4 13.1 7 10.2
2004-08-20 07:45:52 51°10.167 2°35.298 14.4 13.1 13 10.2
2004-08-20 07:45:56 51°10.181 2°35.303 17.6 13.1 14 10.4
2004-08-20 07:46:02 51°10.202 2°35.313 19.4 13.1 15 10.5
2004-08-20 07:46:07 51°10.219 2°35.322 20.9 13.1 17 10.5
2004-08-20 07:46:10 51°10.23 2°35.328 22.8 13.1 21 10.5
2004-08-20 07:46:17 51°10.252 2°35.346 25.1 13 27 10.4
2004-08-20 07:46:21 51°10.265 2°35.357 30.9 13 29 10.6
2004-08-20 07:46:24 51°10.274 2°35.366 33.8 12.9 31 10.7
2004-08-20 07:46:32 51°10.298 2°35.392 37 13 34 10.6
2004-08-20 07:46:37 51°10.312 2°35.41 38.8 13 38 10.5
2004-08-20 07:46:40 51°10.321 2°35.42 42 13 38 10.5
2004-08-20 07:46:45 51°10.335 2°35.438 42.3 13 39 10.5
2004-08-20 07:46:52 51°10.355 2°35.462 42.2 12.9 37 10.3
2004-08-20 07:46:56 51°10.365 2°35.477 42.6 12.9 40 10.5
2004-08-20 07:47:02 51°10.383 2°35.499 42.9 12.9 38 10.1
2004-08-20 07:47:07 51°10.397 2°35.516 43.2 13 39 10.1
2004-08-20 07:47:12 51°10.411 2°35.535 42.6 12.9 39 10.1
2004-08-20 07:47:17 51°10.425 2°35.552 42 12.9 37 9.8
2004-08-20 07:47:19 51°10.43 2°35.559 43 12.9 41 9.8
2004-08-20 07:47:27 51°10.453 2°35.587 42.8 12.9 38 9.7
2004-08-20 07:47:32 51°10.467 2°35.606 43 12.9 40 9.7
2004-08-20 07:47:37 51°10.481 2°35.623 43.1 12.9 38 9.6
2004-08-20 07:47:40 51°10.488 2°35.635 43.6 12.9 41 9.6
2004-08-20 07:47:46 51°10.506 2°35.656 43 12.9 37 9.6
2004-08-20 07:47:50 51°10.517 2°35.67 42.9 12.9 36 9.5
2004-08-20 07:47:56 51°10.534 2°35.691 41.2 12.8 39 9.7
2004-08-20 07:48:02 51°10.551 2°35.711 42.7 12.9 39 9.7
2004-08-20 07:48:04 51°10.557 2°35.718 41.3 13.1 36 9.6
2004-08-20 07:48:13 51°10.583 2°35.75 41.9 13.2 34 9.4
2004-08-20 07:48:19 51°10.6 2°35.772 41.9 13 39 9.6
2004-08-20 07:48:23 51°10.611 2°35.786 41.1 12.9 39 9.5
2004-08-20 07:48:28 51°10.625 2°35.803 41.8 13 38 9.8
2004-08-20 07:48:32 51°10.637 2°35.817 41.8 13.1 37 10
2004-08-20 07:48:39 51°10.657 2°35.842 41.4 13.2 38 9.8
2004-08-20 07:48:44 51°10.672 2°35.859 41.2 13.1 36 9.9
2004-08-20 07:48:48 51°10.683 2°35.873 40.4 13.1 38 9.8
2004-08-20 07:48:54 51°10.701 2°35.894 41 13.1 37 9.8
2004-08-20 07:48:59 51°10.715 2°35.912 41.5 13.1 37 9.9
2004-08-20 07:49:04 51°10.729 2°35.93 42.5 13.1 38 10
2004-08-20 07:49:09 51°10.742 2°35.95 42.9 13.1 44 10
2004-08-20 07:49:13 51°10.754 2°35.965 45.1 13.1 40 10.2
2004-08-20 07:49:19 51°10.768 2°35.99 47.6 12.9 48 10
2004-08-20 07:49:24 51°10.781 2°36.01 49.7 13.2 45 10.3
2004-08-20 07:49:33 51°10.803 2°36.049 50.6 12.9 48 10.2
2004-08-20 07:49:39 51°10.817 2°36.074 52 13 48 10.3
2004-08-20 07:49:44 51°10.829 2°36.096 51.6 12.9 49 10.1
2004-08-20 07:49:54 51°10.854 2°36.138 50.8 13 46 10.5
2004-08-20 07:49:59 51°10.866 2°36.159 51.5 13 50 10.5
2004-08-20 07:50:04 51°10.879 2°36.18 50.5 13.1 45 10.6
2004-08-20 07:50:14 51°10.904 2°36.222 50.4 13.1 45 10.4
2004-08-20 07:50:19 51°10.917 2°36.241 49.8 13.1 43 10.6
2004-08-20 07:50:24 51°10.929 2°36.262 47.6 13 46 10.8
2004-08-20 07:50:28 51°10.94 2°36.278 48.5 13.1 44 10.7
2004-08-20 07:50:33 51°10.952 2°36.298 48.6 13 45 10.7